createdAt,value
2022-07-29T00:00:03.388Z,381.67
2022-07-29T00:05:10.681Z,382.00
2022-07-29T00:10:17.867Z,381.64
2022-07-29T00:15:25.054Z,382.44
2022-07-29T00:20:32.274Z,382.96
2022-07-29T00:25:39.550Z,382.80
2022-07-29T00:30:47.162Z,382.44
2022-07-29T00:35:54.389Z,383.35
2022-07-29T00:41:01.650Z,383.74
2022-07-29T00:46:08.929Z,383.40
2022-07-29T00:51:16.177Z,384.06
2022-07-29T00:56:23.415Z,384.19
2022-07-29T01:01:30.710Z,382.92
2022-07-29T01:06:37.900Z,384.27
2022-07-29T01:11:45.126Z,384.02
2022-07-29T01:16:52.367Z,385.55
2022-07-29T01:21:59.550Z,384.91
2022-07-29T01:27:06.719Z,385.54
2022-07-29T01:32:27.329Z,385.60
2022-07-29T01:37:21.211Z,386.50
2022-07-29T01:42:28.445Z,386.16
2022-07-29T01:47:35.820Z,386.24
2022-07-29T01:52:42.856Z,387.03
2022-07-29T01:57:50.055Z,387.02
2022-07-29T02:02:57.215Z,386.72
2022-07-29T02:08:04.467Z,387.32
2022-07-29T02:13:11.720Z,388.06
2022-07-29T02:18:18.973Z,388.41
2022-07-29T02:23:26.169Z,389.21
2022-07-29T02:28:33.358Z,389.17
2022-07-29T02:33:40.562Z,389.15
2022-07-29T02:38:47.821Z,389.56
2022-07-29T02:43:54.988Z,388.53
2022-07-29T02:49:02.310Z,387.75
2022-07-29T02:54:09.470Z,388.20
2022-07-29T02:59:16.657Z,387.96
2022-07-29T03:04:23.892Z,387.58
2022-07-29T03:09:31.097Z,387.81
2022-07-29T03:14:38.313Z,387.29
2022-07-29T03:19:45.543Z,388.13
2022-07-29T03:24:55.015Z,388.02
2022-07-29T03:30:02.175Z,388.70
2022-07-29T03:35:09.409Z,388.29
2022-07-29T03:40:16.598Z,387.99
2022-07-29T03:45:23.828Z,387.54
2022-07-29T03:50:31.037Z,387.45
2022-07-29T03:55:38.321Z,387.44
2022-07-29T04:00:45.520Z,387.60
2022-07-29T04:05:52.789Z,387.44
2022-07-29T04:11:00.124Z,387.26
2022-07-29T04:16:07.489Z,387.63
2022-07-29T04:21:14.588Z,387.83
2022-07-29T04:26:21.867Z,388.49
2022-07-29T04:31:29.103Z,386.92
2022-07-29T04:36:36.290Z,386.62
2022-07-29T04:41:43.517Z,386.03
2022-07-29T04:46:50.752Z,386.23
2022-07-29T04:51:57.949Z,386.00
2022-07-29T04:57:05.102Z,385.93
2022-07-29T05:02:12.399Z,386.55
2022-07-29T05:07:19.586Z,385.90
2022-07-29T05:12:26.816Z,385.51
2022-07-29T05:17:34.069Z,385.11
2022-07-29T05:22:41.272Z,385.02
2022-07-29T05:27:48.550Z,382.90
2022-07-29T05:32:55.853Z,382.91
2022-07-29T05:38:03.114Z,383.04
2022-07-29T05:43:10.315Z,382.12
2022-07-29T05:48:17.501Z,382.66
2022-07-29T05:53:24.737Z,384.89
2022-07-29T05:58:31.932Z,383.53
2022-07-29T06:03:39.140Z,382.48
2022-07-29T06:08:46.398Z,382.76
2022-07-29T06:13:53.645Z,381.92
2022-07-29T06:19:00.886Z,381.89
2022-07-29T06:24:08.095Z,384.55
2022-07-29T06:29:15.298Z,382.33
2022-07-29T06:34:22.516Z,382.58
2022-07-29T06:39:29.762Z,383.79
2022-07-29T06:44:37.017Z,384.68
2022-07-29T06:49:44.227Z,384.94
2022-07-29T06:54:51.523Z,384.33
2022-07-29T06:59:58.667Z,382.47
2022-07-29T07:05:05.864Z,383.61
2022-07-29T07:10:13.070Z,383.02
2022-07-29T07:15:20.240Z,383.00
2022-07-29T07:20:27.409Z,382.12
2022-07-29T07:25:34.590Z,383.03
2022-07-29T07:30:41.807Z,383.14
2022-07-29T07:35:49.048Z,383.25
2022-07-29T07:40:56.326Z,382.40
2022-07-29T07:46:03.984Z,381.92
2022-07-29T07:51:11.161Z,380.83
2022-07-29T07:56:18.369Z,379.84
2022-07-29T08:01:25.800Z,377.85
2022-07-29T08:06:32.798Z,375.48
2022-07-29T08:11:40.054Z,375.62
2022-07-29T08:16:47.251Z,375.85
2022-07-29T08:21:55.143Z,376.67
2022-07-29T08:27:01.625Z,377.51
2022-07-29T08:32:08.867Z,376.47
2022-07-29T08:37:16.041Z,376.10
2022-07-29T08:42:23.268Z,375.60
2022-07-29T08:47:30.520Z,376.17
2022-07-29T08:52:37.751Z,377.28
2022-07-29T08:57:51.000Z,376.76
2022-07-29T09:02:52.212Z,375.83
2022-07-29T09:07:59.405Z,375.68
2022-07-29T09:13:06.683Z,375.37
2022-07-29T09:18:20.382Z,375.60
2022-07-29T09:23:23.017Z,375.12
2022-07-29T09:28:28.276Z,374.83
2022-07-29T09:33:35.570Z,375.85
2022-07-29T09:38:42.708Z,375.92
2022-07-29T09:43:49.881Z,375.89
2022-07-29T09:48:57.116Z,376.27
2022-07-29T09:54:04.282Z,376.70
2022-07-29T09:59:11.468Z,377.40
2022-07-29T10:04:18.693Z,376.98
2022-07-29T10:09:25.935Z,376.93
2022-07-29T10:14:33.249Z,377.94
2022-07-29T10:19:40.536Z,379.08
2022-07-29T10:24:47.854Z,379.09
2022-07-29T10:29:55.123Z,378.83
2022-07-29T10:35:02.418Z,379.36
2022-07-29T10:40:09.659Z,379.56
2022-07-29T10:45:17.225Z,380.75
2022-07-29T10:50:25.428Z,381.20
2022-07-29T10:55:32.619Z,381.37
2022-07-29T11:00:40.011Z,381.58
2022-07-29T11:05:47.113Z,381.81
2022-07-29T11:10:54.355Z,382.95
2022-07-29T11:16:01.648Z,383.59
2022-07-29T11:21:08.930Z,384.29
2022-07-29T11:26:18.778Z,384.55
2022-07-29T11:31:23.401Z,383.99
2022-07-29T11:36:30.553Z,384.54
2022-07-29T11:41:37.762Z,385.47
2022-07-29T11:46:44.959Z,385.79
2022-07-29T11:51:52.149Z,386.59
2022-07-29T11:56:59.341Z,387.07
2022-07-29T12:02:36.594Z,387.65
2022-07-29T12:07:15.585Z,387.60
2022-07-29T12:12:22.028Z,387.73
2022-07-29T12:17:30.665Z,387.98
2022-07-29T12:22:36.488Z,388.09
2022-07-29T12:27:43.752Z,387.63
2022-07-29T12:32:50.953Z,387.76
2022-07-29T12:37:58.226Z,387.83
2022-07-29T12:43:05.421Z,387.67
2022-07-29T12:48:12.671Z,387.60
2022-07-29T12:53:19.947Z,387.35
2022-07-29T12:58:27.166Z,387.02
2022-07-29T13:03:35.899Z,386.68
2022-07-29T13:08:41.589Z,386.43
2022-07-29T13:13:48.841Z,385.56
2022-07-29T13:18:56.067Z,385.50
2022-07-29T13:24:03.307Z,384.15
2022-07-29T13:29:10.631Z,383.66
2022-07-29T13:34:17.846Z,383.33
2022-07-29T13:39:25.094Z,382.49
2022-07-29T13:44:32.351Z,381.31
2022-07-29T13:49:39.595Z,380.73
2022-07-29T13:54:46.804Z,380.82
2022-07-29T13:59:54.653Z,379.77
2022-07-29T14:05:06.235Z,379.15
2022-07-29T14:10:08.445Z,378.30
2022-07-29T14:15:15.626Z,377.85
2022-07-29T14:20:22.821Z,376.72
2022-07-29T14:25:30.066Z,375.80
2022-07-29T14:30:37.281Z,374.91
2022-07-29T14:35:44.550Z,373.99
2022-07-29T14:40:51.768Z,373.18
2022-07-29T14:46:04.042Z,372.60
2022-07-29T14:51:06.179Z,371.65
2022-07-29T14:56:35.450Z,371.36
2022-07-29T15:01:20.761Z,370.66
2022-07-29T15:06:27.849Z,369.47
2022-07-29T15:11:38.341Z,369.02
2022-07-29T15:16:44.007Z,369.64
2022-07-29T15:21:49.753Z,369.28
2022-07-29T15:26:56.904Z,368.74
2022-07-29T15:32:04.158Z,368.94
2022-07-29T15:37:11.319Z,368.92
2022-07-29T15:42:18.616Z,368.68
2022-07-29T15:47:25.858Z,369.28
2022-07-29T15:52:33.098Z,368.10
2022-07-29T15:57:40.341Z,369.11
2022-07-29T16:02:47.551Z,368.43
2022-07-29T16:07:54.821Z,368.56
2022-07-29T16:13:02.019Z,367.95
2022-07-29T16:18:09.302Z,368.42
2022-07-29T16:23:16.563Z,368.46
2022-07-29T16:28:23.808Z,368.01
2022-07-29T16:33:54.665Z,368.26
2022-07-29T16:38:38.323Z,368.60
2022-07-29T16:43:45.538Z,368.09
2022-07-29T16:48:52.973Z,368.78
2022-07-29T16:54:00.092Z,367.70
2022-07-29T16:59:07.331Z,367.32
2022-07-29T17:04:14.577Z,366.94
2022-07-29T17:09:21.843Z,367.04
2022-07-29T17:14:29.132Z,366.54
2022-07-29T17:19:36.435Z,366.79
2022-07-29T17:24:43.669Z,366.53
2022-07-29T17:29:50.837Z,366.35
2022-07-29T17:34:58.018Z,365.27
2022-07-29T17:40:05.268Z,365.40
2022-07-29T17:45:12.549Z,365.85
2022-07-29T17:50:19.745Z,366.00
2022-07-29T17:55:26.938Z,365.22
2022-07-29T18:00:34.147Z,364.63
2022-07-29T18:05:41.386Z,363.93
2022-07-29T18:10:48.621Z,363.27
2022-07-29T18:16:00.226Z,362.76
2022-07-29T18:21:03.123Z,363.15
2022-07-29T18:26:10.544Z,363.04
2022-07-29T18:31:17.872Z,362.02
2022-07-29T18:36:24.987Z,361.41
2022-07-29T18:41:32.172Z,361.40
2022-07-29T18:46:39.412Z,361.82
2022-07-29T18:51:46.533Z,361.22
2022-07-29T18:56:53.679Z,360.32
2022-07-29T19:02:01.099Z,360.48
2022-07-29T19:07:08.135Z,360.27
2022-07-29T19:12:15.368Z,360.20
2022-07-29T19:17:22.538Z,360.03
2022-07-29T19:22:29.748Z,360.08
2022-07-29T19:27:36.996Z,360.15
2022-07-29T19:32:44.190Z,360.09
2022-07-29T19:37:51.424Z,359.48
2022-07-29T19:42:58.690Z,358.70
2022-07-29T19:48:05.905Z,358.67
2022-07-29T19:53:13.137Z,359.17
2022-07-29T19:58:22.443Z,359.07
2022-07-29T20:03:27.685Z,359.56
2022-07-29T20:08:34.938Z,359.46
2022-07-29T20:13:42.141Z,359.75
2022-07-29T20:18:49.359Z,359.49
2022-07-29T20:23:56.616Z,358.85
2022-07-29T20:29:03.894Z,359.07
2022-07-29T20:34:11.146Z,358.65
2022-07-29T20:39:18.331Z,358.82
2022-07-29T20:44:25.550Z,358.80
2022-07-29T20:49:32.817Z,359.68
2022-07-29T20:54:40.069Z,359.32
2022-07-29T20:59:47.279Z,359.23
2022-07-29T21:04:54.486Z,359.48
2022-07-29T21:10:01.758Z,358.30
2022-07-29T21:15:08.883Z,358.30
2022-07-29T21:20:16.079Z,358.06
2022-07-29T21:25:23.252Z,357.85
2022-07-29T21:30:30.474Z,358.12
2022-07-29T21:36:06.180Z,358.52
2022-07-29T21:40:44.851Z,358.72
2022-07-29T21:45:52.097Z,358.06
2022-07-29T21:50:59.838Z,358.33
2022-07-29T21:56:06.499Z,358.47
2022-07-29T22:01:13.797Z,358.86
2022-07-29T22:06:20.941Z,358.61
2022-07-29T22:11:28.179Z,359.30
2022-07-29T22:16:35.422Z,359.25
2022-07-29T22:21:42.640Z,359.53
2022-07-29T22:26:49.869Z,358.46
2022-07-29T22:31:57.165Z,358.76
2022-07-29T22:37:04.414Z,358.55
2022-07-29T22:42:11.749Z,357.84
2022-07-29T22:47:18.859Z,358.83
2022-07-29T22:52:26.025Z,358.53
2022-07-29T22:57:33.250Z,359.77
2022-07-29T23:02:40.560Z,359.78
2022-07-29T23:07:47.734Z,359.49
2022-07-29T23:12:54.914Z,360.06
2022-07-29T23:18:02.076Z,360.33
2022-07-29T23:23:09.265Z,360.31
2022-07-29T23:28:16.467Z,361.12
2022-07-29T23:33:23.717Z,360.31
2022-07-29T23:38:30.922Z,360.05
2022-07-29T23:43:38.231Z,360.73
2022-07-29T23:48:45.520Z,361.50
2022-07-29T23:53:53.587Z,361.57
2022-07-29T23:59:00.005Z,362.22
